createdAt,value
2019-02-28T00:01:35.678Z,75.15
2019-02-28T00:04:07.029Z,74.87
2019-02-28T00:06:37.978Z,74.93
2019-02-28T00:09:11.169Z,75.17
2019-02-28T00:11:42.209Z,74.92
2019-02-28T00:14:13.210Z,74.89
2019-02-28T00:16:44.082Z,75.42
2019-02-28T00:19:14.977Z,74.96
2019-02-28T00:21:45.738Z,75.26
2019-02-28T00:24:16.835Z,75.42
2019-02-28T00:26:48.012Z,75.47
2019-02-28T00:29:19.958Z,75.32
2019-02-28T00:31:50.848Z,75.02
2019-02-28T00:34:21.801Z,75.00
2019-02-28T00:36:53.421Z,75.29
2019-02-28T00:39:25.191Z,75.29
2019-02-28T00:41:56.034Z,75.00
2019-02-28T00:44:30.413Z,75.19
2019-02-28T00:46:59.326Z,75.19
2019-02-28T00:49:30.218Z,74.97
2019-02-28T00:52:02.198Z,74.97
2019-02-28T00:54:33.440Z,75.08
2019-02-28T00:57:04.321Z,75.36
2019-02-28T00:59:35.305Z,75.36
2019-02-28T01:02:06.187Z,75.80
2019-02-28T01:04:37.074Z,76.33
2019-02-28T01:07:08.065Z,76.87
2019-02-28T01:09:39.072Z,76.63
2019-02-28T01:12:09.958Z,76.45
2019-02-28T01:14:40.981Z,76.34
2019-02-28T01:17:11.737Z,75.98
2019-02-28T01:19:42.610Z,76.50
2019-02-28T01:22:13.510Z,77.99
2019-02-28T01:24:44.518Z,78.71
2019-02-28T01:27:17.395Z,78.19
2019-02-28T01:29:47.876Z,78.19
2019-02-28T01:32:18.880Z,77.95
2019-02-28T01:34:49.790Z,78.04
2019-02-28T01:37:21.173Z,77.91
2019-02-28T01:39:53.165Z,77.56
2019-02-28T01:42:23.971Z,77.23
2019-02-28T01:44:54.957Z,77.22
2019-02-28T01:47:25.766Z,77.22
2019-02-28T01:49:57.710Z,76.93
2019-02-28T01:52:29.421Z,76.53
2019-02-28T01:55:00.317Z,76.50
2019-02-28T01:57:31.188Z,77.05
2019-02-28T02:00:02.083Z,76.94
2019-02-28T02:02:33.462Z,77.01
2019-02-28T02:05:04.567Z,77.04
2019-02-28T02:07:35.785Z,78.55
2019-02-28T02:10:11.846Z,78.16
2019-02-28T02:12:42.649Z,78.74
2019-02-28T02:15:16.910Z,79.33
2019-02-28T02:17:46.082Z,78.92
2019-02-28T02:20:16.976Z,78.48
2019-02-28T02:22:47.960Z,78.10
2019-02-28T02:25:18.755Z,78.51
2019-02-28T02:27:52.778Z,79.11
2019-02-28T02:30:23.307Z,79.19
2019-02-28T02:32:54.160Z,78.83
2019-02-28T02:35:25.212Z,78.72
2019-02-28T02:37:56.051Z,78.45
2019-02-28T02:40:26.996Z,80.07
2019-02-28T02:42:57.779Z,80.55
2019-02-28T02:45:28.690Z,81.11
2019-02-28T02:47:59.455Z,80.64
2019-02-28T02:50:35.904Z,80.27
2019-02-28T02:53:05.598Z,80.27
2019-02-28T02:55:35.905Z,78.22
2019-02-28T02:58:06.781Z,77.67
2019-02-28T03:00:37.855Z,76.95
2019-02-28T03:03:08.752Z,76.32
2019-02-28T03:05:39.735Z,76.50
2019-02-28T03:08:10.530Z,76.44
2019-02-28T03:10:41.535Z,76.67
2019-02-28T03:13:12.302Z,76.83
2019-02-28T03:15:43.481Z,77.21
2019-02-28T03:18:14.304Z,76.84
2019-02-28T03:20:45.380Z,76.93
2019-02-28T03:23:16.381Z,77.38
2019-02-28T03:25:47.479Z,77.36
2019-02-28T03:28:18.361Z,77.10
2019-02-28T03:30:50.278Z,77.09
2019-02-28T03:33:27.217Z,77.07
2019-02-28T03:35:53.931Z,77.38
2019-02-28T03:38:24.769Z,77.49
2019-02-28T03:40:55.657Z,77.74
2019-02-28T03:43:26.444Z,77.82
2019-02-28T03:45:57.572Z,77.61
2019-02-28T03:48:34.645Z,77.78
2019-02-28T03:51:01.033Z,77.35
2019-02-28T03:53:31.886Z,76.72
2019-02-28T03:56:02.827Z,76.77
2019-02-28T03:58:41.707Z,76.86
2019-02-28T04:01:09.416Z,76.42
2019-02-28T04:03:39.318Z,77.31
2019-02-28T04:06:10.132Z,78.47
2019-02-28T04:08:41.016Z,78.42
2019-02-28T04:11:12.011Z,78.04
2019-02-28T04:13:42.877Z,77.86
2019-02-28T04:16:13.573Z,77.80
2019-02-28T04:18:46.622Z,77.48
2019-02-28T04:21:17.188Z,77.37
2019-02-28T04:23:47.984Z,77.14
2019-02-28T04:26:18.765Z,76.92
2019-02-28T04:28:53.248Z,77.08
2019-02-28T04:31:22.894Z,77.32
2019-02-28T04:33:53.863Z,77.83
2019-02-28T04:36:24.756Z,77.57
2019-02-28T04:38:55.705Z,77.40
2019-02-28T04:41:26.653Z,77.59
2019-02-28T04:43:57.639Z,77.92
2019-02-28T04:46:31.838Z,78.06
2019-02-28T04:49:01.030Z,77.61
2019-02-28T04:51:31.820Z,77.35
2019-02-28T04:54:02.708Z,77.25
2019-02-28T04:56:33.802Z,77.58
2019-02-28T04:59:04.794Z,77.51
2019-02-28T05:01:35.740Z,77.84
2019-02-28T05:04:06.401Z,78.36
2019-02-28T05:06:37.351Z,79.20
2019-02-28T05:09:10.758Z,79.23
2019-02-28T05:11:41.267Z,79.51
2019-02-28T05:14:12.166Z,79.86
2019-02-28T05:16:47.187Z,79.85
2019-02-28T05:19:15.990Z,80.54
2019-02-28T05:21:46.783Z,83.93
2019-02-28T05:24:17.656Z,82.93
2019-02-28T05:26:48.438Z,82.05
2019-02-28T05:29:19.278Z,81.44
2019-02-28T05:31:50.157Z,80.82
2019-02-28T05:34:21.307Z,80.15
2019-02-28T05:36:52.384Z,79.79
2019-02-28T05:39:23.138Z,79.08
2019-02-28T05:41:54.118Z,77.56
2019-02-28T05:44:25.116Z,77.81
2019-02-28T05:46:58.069Z,78.04
2019-02-28T05:49:28.674Z,78.72
2019-02-28T05:51:59.883Z,78.92
2019-02-28T05:54:30.716Z,80.57
2019-02-28T05:57:04.716Z,80.02
2019-02-28T05:59:34.139Z,80.08
2019-02-28T06:02:05.684Z,79.37
2019-02-28T06:04:37.139Z,80.35
2019-02-28T06:07:09.474Z,80.35
2019-02-28T06:09:40.451Z,78.87
2019-02-28T06:12:11.435Z,79.22
2019-02-28T06:14:42.349Z,77.30
2019-02-28T06:17:13.235Z,75.08
2019-02-28T06:19:44.362Z,74.72
2019-02-28T06:22:15.517Z,73.97
2019-02-28T06:24:46.291Z,73.09
2019-02-28T06:27:17.291Z,72.77
2019-02-28T06:29:48.274Z,73.20
2019-02-28T06:32:23.211Z,72.78
2019-02-28T06:34:51.767Z,72.49
2019-02-28T06:37:24.020Z,72.46
2019-02-28T06:39:58.645Z,70.97
2019-02-28T06:42:28.997Z,70.28
2019-02-28T06:45:02.530Z,71.30
2019-02-28T06:47:32.482Z,71.38
2019-02-28T06:50:03.044Z,71.40
2019-02-28T06:52:33.654Z,71.02
2019-02-28T06:55:04.617Z,69.79
2019-02-28T06:57:35.203Z,69.13
2019-02-28T07:00:06.651Z,69.01
2019-02-28T07:02:37.226Z,68.09
2019-02-28T07:05:08.407Z,67.65
2019-02-28T07:07:39.206Z,68.06
2019-02-28T07:10:12.691Z,68.15
2019-02-28T07:12:44.766Z,67.07
2019-02-28T07:15:16.254Z,67.06
2019-02-28T07:17:47.602Z,67.76
2019-02-28T07:20:18.746Z,67.45
2019-02-28T07:22:54.628Z,67.83
2019-02-28T07:25:23.080Z,66.72
2019-02-28T07:27:54.037Z,66.63
2019-02-28T07:30:24.930Z,65.69
2019-02-28T07:32:55.897Z,65.60
2019-02-28T07:35:32.673Z,65.94
2019-02-28T07:38:00.397Z,65.68
2019-02-28T07:40:33.211Z,64.32
2019-02-28T07:43:03.865Z,64.40
2019-02-28T07:45:34.768Z,63.82
2019-02-28T07:48:05.644Z,63.82
2019-02-28T07:50:37.447Z,64.09
2019-02-28T07:53:09.733Z,63.85
2019-02-28T07:55:40.759Z,63.61
2019-02-28T07:58:11.816Z,62.86
2019-02-28T08:00:42.840Z,60.70
2019-02-28T08:03:13.687Z,59.87
2019-02-28T08:05:44.860Z,59.97
2019-02-28T08:08:15.752Z,58.62
2019-02-28T08:10:47.929Z,58.37
2019-02-28T08:13:19.480Z,58.93
2019-02-28T08:15:53.363Z,59.59
2019-02-28T08:18:23.209Z,58.01
2019-02-28T08:20:54.101Z,58.18
2019-02-28T08:23:24.887Z,56.40
2019-02-28T08:25:55.863Z,57.24
2019-02-28T08:28:29.592Z,55.68
2019-02-28T08:31:01.629Z,56.60
2019-02-28T08:33:33.354Z,55.50
2019-02-28T08:36:08.472Z,55.05
2019-02-28T08:38:37.062Z,54.82
2019-02-28T08:41:08.060Z,54.85
2019-02-28T08:43:38.953Z,55.25
2019-02-28T08:46:12.114Z,55.63
2019-02-28T08:48:42.366Z,55.80
2019-02-28T08:51:13.352Z,54.08
2019-02-28T08:53:44.221Z,54.60
2019-02-28T08:56:15.581Z,53.02
2019-02-28T08:58:46.424Z,53.32
2019-02-28T09:01:17.502Z,53.16
2019-02-28T09:03:50.229Z,53.88
2019-02-28T09:06:22.240Z,52.44
2019-02-28T09:08:53.147Z,52.67
2019-02-28T09:11:24.063Z,51.12
2019-02-28T09:13:55.003Z,51.68
2019-02-28T09:16:25.892Z,51.37
2019-02-28T09:18:57.482Z,50.84
2019-02-28T09:21:29.200Z,50.90
2019-02-28T09:24:00.120Z,50.38
2019-02-28T09:26:31.242Z,49.87
2019-02-28T09:29:03.820Z,49.90
2019-02-28T09:31:38.655Z,50.11
2019-02-28T09:34:09.434Z,48.83
2019-02-28T09:36:40.527Z,49.92
2019-02-28T09:39:11.583Z,50.01
2019-02-28T09:41:42.417Z,49.35
2019-02-28T09:44:13.289Z,48.63
2019-02-28T09:46:44.187Z,47.81
2019-02-28T09:49:15.163Z,47.92
2019-02-28T09:51:46.048Z,47.43
2019-02-28T09:54:16.860Z,47.32
2019-02-28T09:56:47.740Z,46.42
2019-02-28T09:59:18.610Z,46.44
2019-02-28T10:01:49.411Z,46.53
2019-02-28T10:04:21.003Z,47.22
2019-02-28T10:06:52.267Z,46.19
2019-02-28T10:09:24.220Z,46.97
2019-02-28T10:11:55.111Z,45.91
2019-02-28T10:14:28.856Z,46.36
2019-02-28T10:16:58.921Z,47.41
2019-02-28T10:19:29.915Z,45.89
2019-02-28T10:22:00.800Z,46.04
2019-02-28T10:24:32.364Z,45.92
2019-02-28T10:27:03.565Z,46.14
2019-02-28T10:29:34.608Z,45.63
2019-02-28T10:32:06.151Z,46.16
2019-02-28T10:34:38.007Z,46.19
2019-02-28T10:37:08.993Z,45.71
2019-02-28T10:39:40.316Z,44.91
2019-02-28T10:42:12.520Z,43.62
2019-02-28T10:44:43.582Z,43.33
2019-02-28T10:47:14.489Z,42.85
2019-02-28T10:49:45.491Z,42.16
2019-02-28T10:52:16.320Z,42.48
2019-02-28T10:54:48.662Z,41.76
2019-02-28T10:57:19.732Z,42.03
2019-02-28T10:59:50.608Z,42.58
2019-02-28T11:02:21.792Z,42.00
2019-02-28T11:04:52.607Z,41.25
2019-02-28T11:07:23.791Z,40.94
2019-02-28T11:09:55.560Z,42.17
2019-02-28T11:12:27.303Z,41.74
2019-02-28T11:14:58.202Z,41.18
2019-02-28T11:17:30.419Z,41.28
2019-02-28T11:20:01.886Z,41.23
2019-02-28T11:22:32.739Z,40.95
2019-02-28T11:25:03.724Z,41.10
2019-02-28T11:27:35.014Z,41.74
2019-02-28T11:30:07.394Z,42.00
2019-02-28T11:32:40.082Z,40.97
2019-02-28T11:35:12.871Z,41.61
2019-02-28T11:37:46.179Z,40.88
2019-02-28T11:40:19.028Z,41.07
2019-02-28T11:42:50.082Z,40.48
2019-02-28T11:45:25.370Z,40.71
2019-02-28T11:47:56.275Z,41.35
2019-02-28T11:50:27.238Z,41.76
2019-02-28T11:53:03.247Z,41.81
2019-02-28T11:55:30.692Z,41.10
2019-02-28T11:58:01.882Z,41.45
2019-02-28T12:00:35.831Z,41.90
2019-02-28T12:03:06.604Z,41.03
2019-02-28T12:05:37.917Z,40.79
2019-02-28T12:08:10.288Z,40.28
2019-02-28T12:10:41.319Z,40.81
2019-02-28T12:13:12.314Z,40.72
2019-02-28T12:15:43.204Z,40.11
2019-02-28T12:18:14.084Z,40.39
2019-02-28T12:20:45.983Z,40.43
2019-02-28T12:23:16.795Z,40.58
2019-02-28T12:25:47.691Z,40.03
2019-02-28T12:28:18.567Z,39.87
2019-02-28T12:30:49.558Z,39.55
2019-02-28T12:33:23.143Z,39.54
2019-02-28T12:35:54.740Z,39.58
2019-02-28T12:38:29.044Z,39.23
2019-02-28T12:40:58.871Z,38.90
2019-02-28T12:43:29.885Z,38.52
2019-02-28T12:46:00.869Z,39.02
2019-02-28T12:48:31.843Z,38.50
2019-02-28T12:51:05.319Z,38.18
2019-02-28T12:53:35.564Z,37.66
2019-02-28T12:56:06.372Z,38.69
2019-02-28T12:58:39.182Z,38.66
2019-02-28T13:01:10.244Z,38.06
2019-02-28T13:03:41.097Z,38.29
2019-02-28T13:06:12.047Z,37.82
2019-02-28T13:08:42.965Z,37.81
2019-02-28T13:11:14.004Z,38.12
2019-02-28T13:13:44.735Z,37.82
2019-02-28T13:16:17.437Z,37.48
2019-02-28T13:18:48.352Z,37.99
2019-02-28T13:21:19.139Z,37.97
2019-02-28T13:23:50.117Z,37.67
2019-02-28T13:26:20.904Z,37.31
2019-02-28T13:28:54.569Z,37.78
2019-02-28T13:31:25.592Z,37.89
2019-02-28T13:33:57.259Z,37.07
2019-02-28T13:36:28.136Z,36.59
2019-02-28T13:39:01.663Z,36.80
2019-02-28T13:41:34.512Z,36.26
2019-02-28T13:44:05.628Z,36.56
2019-02-28T13:46:36.399Z,35.94
2019-02-28T13:49:08.559Z,35.92
2019-02-28T13:51:42.122Z,37.00
2019-02-28T13:54:12.564Z,36.30
2019-02-28T13:56:44.362Z,36.85
2019-02-28T13:59:15.262Z,37.28
2019-02-28T14:01:46.040Z,36.63
2019-02-28T14:04:19.408Z,36.10
2019-02-28T14:06:52.449Z,36.73
2019-02-28T14:09:24.343Z,36.22
2019-02-28T14:11:55.204Z,37.10
2019-02-28T14:14:26.094Z,36.75
2019-02-28T14:16:58.324Z,37.36
2019-02-28T14:19:29.519Z,37.26
2019-02-28T14:22:00.586Z,38.04
2019-02-28T14:24:32.064Z,36.68
2019-02-28T14:27:03.004Z,37.26
2019-02-28T14:29:33.870Z,37.51
2019-02-28T14:32:07.511Z,38.49
2019-02-28T14:34:37.757Z,37.98
2019-02-28T14:37:08.596Z,37.50
2019-02-28T14:39:42.600Z,37.32
2019-02-28T14:42:13.517Z,37.46
2019-02-28T14:44:44.503Z,37.78
2019-02-28T14:47:15.513Z,38.74
2019-02-28T14:49:46.404Z,38.99
2019-02-28T14:52:17.299Z,38.51
2019-02-28T14:54:48.091Z,38.17
2019-02-28T14:57:18.866Z,39.10
2019-02-28T14:59:50.055Z,38.37
2019-02-28T15:02:20.930Z,38.27
2019-02-28T15:04:52.034Z,38.58
2019-02-28T15:07:22.822Z,38.48
2019-02-28T15:09:54.534Z,38.69
2019-02-28T15:12:25.298Z,38.12
2019-02-28T15:14:56.757Z,38.16
2019-02-28T15:17:27.707Z,39.93
2019-02-28T15:19:58.873Z,39.20
2019-02-28T15:22:29.687Z,38.16
2019-02-28T15:25:00.670Z,37.92
2019-02-28T15:27:31.561Z,36.66
2019-02-28T15:30:02.634Z,35.80
2019-02-28T15:32:33.323Z,36.69
2019-02-28T15:35:04.511Z,37.48
2019-02-28T15:37:35.522Z,37.06
2019-02-28T15:40:07.691Z,37.09
2019-02-28T15:42:39.621Z,37.79
2019-02-28T15:45:11.648Z,38.51
2019-02-28T15:47:42.740Z,38.63
2019-02-28T15:50:16.395Z,39.10
2019-02-28T15:52:48.108Z,39.03
2019-02-28T15:55:19.279Z,40.06
2019-02-28T15:57:50.094Z,39.63
2019-02-28T16:00:28.385Z,40.03
2019-02-28T16:02:59.425Z,40.83
2019-02-28T16:05:30.575Z,41.24
2019-02-28T16:08:01.517Z,41.10
2019-02-28T16:10:32.969Z,41.37
2019-02-28T16:13:05.380Z,41.57
2019-02-28T16:15:36.587Z,41.94
2019-02-28T16:18:08.757Z,42.84
2019-02-28T16:20:40.307Z,43.34
2019-02-28T16:23:11.379Z,43.84
2019-02-28T16:25:42.497Z,43.58
2019-02-28T16:28:13.511Z,44.70
2019-02-28T16:30:44.383Z,44.13
2019-02-28T16:33:15.393Z,44.26
2019-02-28T16:35:46.664Z,44.78
2019-02-28T16:38:18.832Z,44.63
2019-02-28T16:40:50.020Z,45.67
2019-02-28T16:43:21.684Z,44.71
2019-02-28T16:45:52.385Z,45.39
2019-02-28T16:48:23.351Z,45.65
2019-02-28T16:50:56.764Z,46.15
2019-02-28T16:53:26.782Z,45.30
2019-02-28T16:55:57.642Z,46.03
2019-02-28T16:58:28.624Z,45.41
2019-02-28T17:00:59.603Z,45.76
2019-02-28T17:03:30.459Z,46.10
2019-02-28T17:06:02.267Z,45.45
2019-02-28T17:08:37.281Z,45.89
2019-02-28T17:11:08.345Z,45.52
2019-02-28T17:14:00.054Z,46.57
2019-02-28T17:16:42.537Z,46.51
2019-02-28T17:19:13.495Z,46.70
2019-02-28T17:21:44.375Z,46.44
2019-02-28T17:24:15.263Z,46.30
2019-02-28T17:27:11.382Z,45.79
2019-02-28T17:29:49.486Z,45.90
2019-02-28T17:32:20.960Z,46.47
2019-02-28T17:34:51.877Z,46.74
2019-02-28T17:37:25.859Z,46.48
2019-02-28T17:39:55.487Z,47.70
2019-02-28T17:42:26.184Z,46.51
2019-02-28T17:45:16.313Z,46.83
2019-02-28T17:48:34.226Z,47.15
2019-02-28T17:51:11.303Z,47.26
2019-02-28T17:54:03.846Z,47.84
2019-02-28T17:57:20.393Z,47.96
2019-02-28T18:00:35.158Z,48.33
2019-02-28T18:03:55.453Z,48.94
2019-02-28T18:07:11.114Z,49.62
2019-02-28T18:10:24.245Z,50.51
2019-02-28T18:13:21.154Z,51.02
2019-02-28T18:16:36.470Z,51.68
2019-02-28T18:19:44.141Z,51.72
2019-02-28T18:22:38.382Z,51.47
2019-02-28T18:25:59.084Z,51.79
2019-02-28T18:29:18.974Z,51.55
2019-02-28T18:31:49.898Z,52.12
2019-02-28T18:34:26.995Z,52.46
2019-02-28T18:36:57.928Z,53.12
2019-02-28T18:39:28.903Z,52.47
2019-02-28T18:41:59.837Z,52.93
2019-02-28T18:44:30.813Z,52.97
2019-02-28T18:47:04.175Z,53.05
2019-02-28T18:49:36.355Z,52.92
2019-02-28T18:52:07.257Z,52.79
2019-02-28T18:54:39.388Z,54.13
2019-02-28T18:57:10.329Z,54.65
2019-02-28T18:59:41.213Z,54.25
2019-02-28T19:02:12.130Z,54.32
2019-02-28T19:04:43.489Z,53.96
2019-02-28T19:07:14.431Z,54.90
2019-02-28T19:09:45.411Z,54.11
2019-02-28T19:12:16.288Z,54.94
2019-02-28T19:14:47.178Z,54.68
2019-02-28T19:17:18.168Z,54.70
2019-02-28T19:19:53.774Z,54.65
2019-02-28T19:22:24.670Z,54.59
2019-02-28T19:24:55.866Z,54.63
2019-02-28T19:27:26.636Z,54.91
2019-02-28T19:29:57.725Z,55.43
2019-02-28T19:32:28.615Z,56.08
2019-02-28T19:34:59.498Z,56.66
2019-02-28T19:37:30.331Z,56.52
2019-02-28T19:40:01.234Z,56.67
2019-02-28T19:42:33.565Z,56.94
2019-02-28T19:45:04.839Z,57.01
2019-02-28T19:47:35.715Z,57.23
2019-02-28T19:50:08.731Z,57.37
2019-02-28T19:52:39.600Z,57.47
2019-02-28T19:55:12.139Z,58.27
2019-02-28T19:57:43.020Z,58.46
2019-02-28T20:00:15.558Z,59.11
2019-02-28T20:02:46.547Z,59.32
2019-02-28T20:05:18.018Z,59.13
2019-02-28T20:07:48.934Z,59.17
2019-02-28T20:10:20.409Z,59.16
2019-02-28T20:12:51.264Z,59.87
2019-02-28T20:15:24.203Z,61.16
2019-02-28T20:17:55.466Z,62.89
2019-02-28T20:20:27.447Z,64.46
2019-02-28T20:22:58.384Z,65.12
2019-02-28T20:25:29.388Z,65.19
2019-02-28T20:28:00.338Z,65.62
2019-02-28T20:30:32.031Z,64.85
2019-02-28T20:33:03.032Z,64.16
2019-02-28T20:35:33.997Z,63.94
2019-02-28T20:38:05.231Z,63.46
2019-02-28T20:40:36.134Z,63.71
2019-02-28T20:43:07.287Z,64.04
2019-02-28T20:45:38.279Z,63.52
2019-02-28T20:48:09.177Z,65.50
2019-02-28T20:50:41.498Z,68.58
2019-02-28T20:53:12.273Z,70.01
2019-02-28T20:55:43.278Z,70.61
2019-02-28T20:58:15.988Z,71.09
2019-02-28T21:00:48.064Z,72.68
2019-02-28T21:03:18.990Z,73.06
2019-02-28T21:05:50.159Z,72.43
2019-02-28T21:08:21.192Z,72.68
2019-02-28T21:10:52.065Z,72.51
2019-02-28T21:13:22.854Z,72.52
2019-02-28T21:15:53.735Z,72.67
2019-02-28T21:18:24.848Z,71.87
2019-02-28T21:20:55.739Z,71.99
2019-02-28T21:23:26.709Z,72.07
2019-02-28T21:25:57.544Z,72.08
2019-02-28T21:28:28.579Z,72.29
2019-02-28T21:30:59.638Z,71.71
2019-02-28T21:33:30.519Z,71.73
2019-02-28T21:36:01.315Z,72.50
2019-02-28T21:38:32.377Z,72.91
2019-02-28T21:41:03.291Z,72.76
2019-02-28T21:43:35.300Z,72.88
2019-02-28T21:46:06.190Z,72.66
2019-02-28T21:48:37.177Z,72.56
2019-02-28T21:51:07.967Z,72.60
2019-02-28T21:53:38.947Z,73.25
2019-02-28T21:56:09.735Z,73.94
2019-02-28T21:58:40.694Z,75.30
2019-02-28T22:01:11.498Z,75.95
2019-02-28T22:03:42.489Z,76.42
2019-02-28T22:06:13.299Z,76.73
2019-02-28T22:08:44.190Z,76.00
2019-02-28T22:11:15.050Z,75.38
2019-02-28T22:13:46.028Z,75.95
2019-02-28T22:16:16.826Z,76.12
2019-02-28T22:18:47.914Z,75.77
2019-02-28T22:21:18.717Z,75.11
2019-02-28T22:23:49.590Z,74.71
2019-02-28T22:26:20.394Z,75.01
2019-02-28T22:28:52.004Z,74.55
2019-02-28T22:31:45.606Z,74.42
2019-02-28T22:34:35.497Z,74.29
2019-02-28T22:37:06.317Z,74.00
2019-02-28T22:39:37.202Z,74.72
2019-02-28T22:42:08.102Z,75.05
2019-02-28T22:44:39.001Z,74.80
2019-02-28T22:47:09.578Z,75.12
2019-02-28T22:49:40.467Z,74.97
2019-02-28T22:52:11.355Z,74.62
2019-02-28T22:54:42.330Z,74.66
2019-02-28T22:57:13.231Z,73.39
2019-02-28T22:59:44.406Z,73.23
2019-02-28T23:02:15.194Z,72.92
2019-02-28T23:04:46.559Z,72.14
2019-02-28T23:07:17.601Z,71.82
2019-02-28T23:09:48.645Z,71.85
2019-02-28T23:12:19.569Z,71.21
2019-02-28T23:14:50.489Z,71.69
2019-02-28T23:17:21.362Z,72.13
2019-02-28T23:19:52.189Z,72.27
2019-02-28T23:22:23.187Z,72.82
2019-02-28T23:24:53.951Z,72.88
2019-02-28T23:27:24.840Z,73.41
2019-02-28T23:30:34.940Z,73.45
2019-02-28T23:33:12.918Z,72.51
2019-02-28T23:35:45.610Z,72.67
2019-02-28T23:38:16.766Z,71.99
2019-02-28T23:40:47.622Z,71.94
2019-02-28T23:43:18.509Z,71.66
2019-02-28T23:45:49.292Z,71.14
2019-02-28T23:48:20.170Z,70.86
2019-02-28T23:50:51.058Z,70.48
2019-02-28T23:53:22.063Z,70.24
2019-02-28T23:55:52.851Z,70.57
2019-02-28T23:58:24.126Z,70.48
